createdAt,value
2023-04-27T10:58:49.478Z,19.47
2023-04-27T10:59:48.283Z,19.56
2023-04-27T11:00:48.300Z,19.58
2023-04-27T11:01:48.264Z,19.66
2023-04-27T11:03:48.442Z,19.51
2023-04-27T11:04:48.236Z,19.62
2023-04-27T11:05:48.234Z,19.64
2023-04-27T11:06:48.232Z,19.67
2023-04-27T11:08:48.221Z,19.88
2023-04-27T11:09:48.152Z,19.91
2023-04-27T11:10:48.185Z,19.96
2023-04-27T11:11:51.153Z,20.10
2023-04-27T11:12:48.134Z,19.94
2023-04-27T11:14:48.180Z,19.62
2023-04-27T11:16:48.163Z,19.55
2023-04-27T11:18:49.308Z,19.48
2023-04-27T11:19:48.188Z,19.47
2023-04-27T11:21:48.070Z,19.71
2023-04-27T11:22:48.025Z,19.74
2023-04-27T11:24:48.045Z,20.21
2023-04-27T11:25:48.229Z,19.69
2023-04-27T11:26:51.018Z,19.37
2023-04-27T11:28:48.010Z,18.83
2023-04-27T11:29:48.002Z,18.80
2023-04-27T11:30:47.967Z,19.04
2023-04-27T11:31:47.995Z,19.27
2023-04-27T11:32:47.955Z,19.51
2023-04-27T11:34:47.933Z,19.69
2023-04-27T11:35:47.944Z,19.76
2023-04-27T11:36:48.065Z,19.77
2023-04-27T11:37:47.898Z,19.70
2023-04-27T11:38:47.946Z,19.64
2023-04-27T11:39:47.890Z,19.48
2023-04-27T11:40:47.827Z,19.39
2023-04-27T11:41:50.877Z,19.45
2023-04-27T11:42:47.850Z,19.89
2023-04-27T11:44:47.827Z,20.47
2023-04-27T11:45:47.879Z,20.67
2023-04-27T11:46:47.884Z,20.72
2023-04-27T11:47:47.795Z,20.80
2023-04-27T11:48:47.787Z,20.93
2023-04-27T11:49:47.758Z,20.88
2023-04-27T11:50:47.762Z,20.62
2023-04-27T11:51:47.734Z,20.32
2023-04-27T11:52:47.711Z,20.22
2023-04-27T11:53:47.731Z,19.99
2023-04-27T11:54:47.739Z,19.82
2023-04-27T11:55:47.688Z,19.76
2023-04-27T11:56:50.667Z,19.89
2023-04-27T11:57:47.711Z,19.67
2023-04-27T11:59:47.683Z,19.79
2023-04-27T12:00:47.745Z,19.94
2023-04-27T12:01:47.648Z,20.03
2023-04-27T12:02:47.766Z,20.21
2023-04-27T12:03:47.784Z,20.37
2023-04-27T12:04:47.784Z,20.50
2023-04-27T12:06:47.567Z,20.69
2023-04-27T12:07:47.566Z,20.44
2023-04-27T12:08:47.628Z,20.29
2023-04-27T12:09:47.572Z,20.31
2023-04-27T12:10:47.603Z,20.48
2023-04-27T12:11:50.514Z,20.56
2023-04-27T12:12:47.576Z,20.67
2023-04-27T12:13:47.495Z,20.72
2023-04-27T12:14:47.477Z,20.66
2023-04-27T12:15:47.488Z,20.62
2023-04-27T12:16:47.505Z,20.56
2023-04-27T12:17:47.556Z,20.24
2023-04-27T12:19:47.451Z,20.31
2023-04-27T12:21:47.443Z,20.52
2023-04-27T12:22:47.453Z,20.74
2023-04-27T12:23:47.435Z,20.78
2023-04-27T12:24:47.372Z,20.84
2023-04-27T12:25:47.371Z,20.93
2023-04-27T12:26:50.402Z,21.15
2023-04-27T12:27:47.352Z,21.32
2023-04-27T12:28:47.374Z,21.33
2023-04-27T12:29:47.521Z,21.32
2023-04-27T12:30:48.373Z,21.42
2023-04-27T12:31:47.384Z,21.45
2023-04-27T12:32:47.331Z,21.39
2023-04-27T12:33:47.310Z,21.39
2023-04-27T12:34:47.440Z,21.37
2023-04-27T12:35:47.315Z,21.46
2023-04-27T12:36:54.782Z,21.46
2023-04-27T12:37:47.240Z,21.48
2023-04-27T12:38:47.250Z,21.30
2023-04-27T12:41:25.004Z,21.18
2023-04-27T12:42:24.839Z,20.99
2023-04-27T12:43:24.833Z,20.69
2023-04-27T12:45:33.349Z,20.16
2023-04-27T12:46:24.814Z,19.91
2023-04-27T12:48:25.817Z,19.47
2023-04-27T12:53:48.162Z,20.10
2023-04-27T12:55:57.600Z,19.84
2023-04-27T12:56:48.056Z,19.95
2023-04-27T12:57:48.053Z,20.10
2023-04-27T13:00:10.935Z,20.18
2023-04-27T13:01:10.965Z,20.06
2023-04-27T13:02:15.187Z,20.00
2023-04-27T13:03:11.011Z,19.92
2023-04-27T13:04:10.979Z,19.77
2023-04-27T13:06:10.926Z,19.85
2023-04-27T13:13:11.182Z,20.41
2023-04-27T13:14:23.748Z,20.29
2023-04-27T13:19:45.470Z,20.56
2023-04-27T13:20:55.454Z,20.66
2023-04-27T13:21:42.872Z,20.88
2023-04-27T13:24:08.281Z,21.09
2023-04-27T13:25:20.878Z,21.18
2023-04-27T13:26:06.220Z,21.11
2023-04-27T13:28:29.126Z,21.09
2023-04-27T13:29:29.092Z,21.11
2023-04-27T13:30:38.184Z,21.20
2023-04-27T13:32:39.656Z,21.09
2023-04-27T13:35:06.811Z,20.52
2023-04-27T13:36:06.818Z,20.09
2023-04-27T13:38:06.758Z,19.51
2023-04-27T13:39:06.762Z,19.82
2023-04-27T13:40:06.772Z,19.86
2023-04-27T13:41:06.753Z,20.04
2023-04-27T13:42:06.756Z,19.99
2023-04-27T13:43:06.762Z,20.02
2023-04-27T13:44:06.732Z,20.02
2023-04-27T13:46:06.685Z,19.99
2023-04-27T13:47:06.934Z,20.03
2023-04-27T13:48:09.720Z,20.13
2023-04-27T13:49:06.681Z,20.22
2023-04-27T13:50:06.643Z,20.36
2023-04-27T13:51:06.644Z,20.36
2023-04-27T13:52:06.644Z,20.34
2023-04-27T13:54:06.627Z,20.39
2023-04-27T13:55:06.770Z,20.50
2023-04-27T13:56:06.610Z,20.29
2023-04-27T13:57:06.568Z,20.18
2023-04-27T13:58:06.599Z,20.24
2023-04-27T13:59:06.580Z,20.34
2023-04-27T14:00:06.555Z,20.19
2023-04-27T14:01:06.583Z,20.10
2023-04-27T14:02:06.551Z,20.03
2023-04-27T14:03:09.691Z,20.21
2023-04-27T14:04:06.795Z,20.37
2023-04-27T14:06:06.506Z,20.56
2023-04-27T14:07:06.497Z,20.63
2023-04-27T14:09:06.466Z,20.66
2023-04-27T14:10:06.456Z,20.24
2023-04-27T14:11:06.458Z,19.99
2023-04-27T14:12:06.420Z,19.85
2023-04-27T14:13:06.432Z,19.79
2023-04-27T14:14:06.456Z,19.70
2023-04-27T14:15:06.394Z,19.67
2023-04-27T14:16:06.455Z,19.79
2023-04-27T14:17:06.504Z,19.81
2023-04-27T14:18:09.466Z,19.92
2023-04-27T14:23:05.738Z,20.87
2023-04-27T14:24:14.169Z,20.80
2023-04-27T14:25:14.166Z,20.75
2023-04-27T14:26:12.969Z,20.63
2023-04-27T14:27:05.649Z,20.48
2023-04-27T14:28:05.601Z,20.40
2023-04-27T14:29:05.610Z,20.48
2023-04-27T14:30:05.579Z,20.55
2023-04-27T14:31:05.592Z,20.62
2023-04-27T14:32:05.614Z,20.75
2023-04-27T14:33:05.762Z,20.88
2023-04-27T14:35:05.570Z,21.15
2023-04-27T14:36:08.517Z,21.18
2023-04-27T14:37:05.525Z,21.03
2023-04-27T14:38:05.519Z,20.80
2023-04-27T14:40:05.524Z,20.82
2023-04-27T14:41:08.111Z,20.99
2023-04-27T14:42:05.501Z,21.18
2023-04-27T14:45:52.693Z,21.45
2023-04-27T14:46:50.493Z,21.33
2023-04-27T14:47:49.460Z,21.05
2023-04-27T14:48:49.489Z,20.90
2023-04-27T14:51:29.342Z,21.18
2023-04-27T14:52:34.986Z,21.27
2023-04-27T14:54:52.848Z,21.27
2023-04-27T14:57:14.727Z,21.20
2023-04-27T14:58:13.187Z,21.15
2023-04-27T15:00:13.170Z,21.35
2023-04-27T15:01:13.286Z,21.20
2023-04-27T15:02:13.224Z,20.97
2023-04-27T15:04:13.166Z,20.25
2023-04-27T15:05:13.122Z,20.03
2023-04-27T15:06:13.123Z,19.92
2023-04-27T15:07:13.120Z,19.82
2023-04-27T15:08:13.320Z,19.92
2023-04-27T15:10:16.100Z,20.14
2023-04-27T15:11:13.066Z,20.29
2023-04-27T15:12:13.055Z,20.21
2023-04-27T15:13:13.108Z,20.03
2023-04-27T15:14:13.062Z,20.03
2023-04-27T15:15:13.021Z,20.03
2023-04-27T15:16:13.039Z,20.03
2023-04-27T15:17:13.065Z,20.19
2023-04-27T15:18:13.124Z,20.32
2023-04-27T15:19:13.093Z,20.39
2023-04-27T15:20:12.967Z,20.40
2023-04-27T15:21:12.957Z,20.22
2023-04-27T15:22:13.908Z,20.16
2023-04-27T15:23:12.909Z,20.18
2023-04-27T15:24:12.971Z,20.29
2023-04-27T15:25:15.902Z,20.41
2023-04-27T15:26:12.918Z,20.51
2023-04-27T15:27:12.905Z,20.59
2023-04-27T15:28:12.897Z,20.59
2023-04-27T15:29:13.175Z,20.48
2023-04-27T15:30:12.903Z,20.44
2023-04-27T15:31:12.835Z,20.48
2023-04-27T15:32:12.820Z,20.58
2023-04-27T15:33:12.911Z,20.44
2023-04-27T15:34:12.915Z,20.48
2023-04-27T15:35:12.771Z,20.44
2023-04-27T15:36:12.766Z,20.55
2023-04-27T15:37:12.852Z,20.70
2023-04-27T15:38:12.749Z,20.82
2023-04-27T15:40:15.742Z,20.75
2023-04-27T15:41:12.758Z,20.66
2023-04-27T15:42:12.758Z,20.69
2023-04-27T15:43:12.714Z,20.77
2023-04-27T15:45:12.773Z,20.85
2023-04-27T15:46:12.681Z,20.88
2023-04-27T15:47:12.700Z,20.93
2023-04-27T15:48:12.764Z,20.96
2023-04-27T15:49:12.869Z,20.88
2023-04-27T15:50:12.618Z,20.85
2023-04-27T15:51:12.638Z,20.93
2023-04-27T15:53:12.626Z,21.06
2023-04-27T15:54:12.616Z,21.02
2023-04-27T15:55:15.562Z,21.06
2023-04-27T15:56:12.571Z,21.05
2023-04-27T15:57:12.558Z,20.97
2023-04-27T15:58:12.563Z,20.92
2023-04-27T15:59:12.740Z,20.87
2023-04-27T16:00:12.562Z,20.84
2023-04-27T16:01:12.561Z,20.77
2023-04-27T16:02:12.670Z,20.72
2023-04-27T16:03:12.648Z,20.70
2023-04-27T16:04:12.570Z,20.47
2023-04-27T16:05:12.474Z,20.56
2023-04-27T16:06:12.488Z,20.66
2023-04-27T16:07:12.515Z,20.63
2023-04-27T16:08:12.441Z,20.67
2023-04-27T16:09:12.708Z,20.75
2023-04-27T16:10:15.420Z,20.80
2023-04-27T16:11:12.398Z,20.88
2023-04-27T16:12:12.473Z,20.96
2023-04-27T16:13:12.374Z,21.06
2023-04-27T16:14:12.444Z,21.14
2023-04-27T16:16:12.352Z,21.33
2023-04-27T16:17:12.335Z,21.36
2023-04-27T16:18:12.370Z,21.37
2023-04-27T16:19:12.442Z,21.33
2023-04-27T16:20:12.342Z,21.32
2023-04-27T16:21:12.296Z,21.29
2023-04-27T16:23:12.450Z,21.21
2023-04-27T16:24:12.279Z,21.15
2023-04-27T16:25:15.290Z,20.99
2023-04-27T16:26:12.400Z,20.93
2023-04-27T16:28:12.271Z,20.87
2023-04-27T16:29:12.432Z,20.84
2023-04-27T16:30:12.213Z,20.80
2023-04-27T16:31:12.216Z,20.74
2023-04-27T16:32:12.206Z,20.75
2023-04-27T16:33:12.185Z,20.78
2023-04-27T16:34:12.210Z,20.81
2023-04-27T16:35:12.168Z,20.88
2023-04-27T16:36:12.159Z,20.92
2023-04-27T16:38:12.134Z,20.99
2023-04-27T16:39:12.228Z,20.96
2023-04-27T16:40:15.074Z,20.97
2023-04-27T16:41:12.079Z,21.00
2023-04-27T16:42:12.108Z,20.95
2023-04-27T16:43:12.060Z,20.95
2023-04-27T16:44:12.060Z,20.88
2023-04-27T16:45:12.104Z,20.92
2023-04-27T16:46:12.094Z,20.90
2023-04-27T16:48:12.039Z,20.81
2023-04-27T16:49:12.060Z,20.78
2023-04-27T16:50:12.009Z,20.74
2023-04-27T16:51:11.997Z,20.62
2023-04-27T16:52:11.983Z,20.48
2023-04-27T16:54:11.974Z,20.36
2023-04-27T16:55:14.945Z,20.31
2023-04-27T16:56:11.951Z,20.29
2023-04-27T16:57:11.922Z,20.25
2023-04-27T16:58:11.907Z,20.18
2023-04-27T16:59:12.318Z,20.13
2023-04-27T17:00:11.954Z,20.11
2023-04-27T17:01:11.904Z,20.07
2023-04-27T17:02:23.880Z,20.03
2023-04-27T17:04:12.112Z,19.94
2023-04-27T17:05:12.077Z,19.89
2023-04-27T17:06:11.815Z,19.84
2023-04-27T17:07:11.830Z,19.79
2023-04-27T17:08:11.836Z,19.77
2023-04-27T17:09:12.001Z,19.67
2023-04-27T17:10:14.802Z,19.64
2023-04-27T17:11:11.809Z,19.58
2023-04-27T17:12:11.852Z,19.55
2023-04-27T17:13:11.850Z,19.54
2023-04-27T17:14:11.858Z,19.51
2023-04-27T17:15:11.737Z,19.47
2023-04-27T17:16:11.945Z,19.44
2023-04-27T17:17:11.696Z,19.41
2023-04-27T17:18:11.753Z,19.39
2023-04-27T17:19:11.910Z,19.37
2023-04-27T17:20:11.695Z,19.33
2023-04-27T17:21:11.651Z,19.24
2023-04-27T17:22:11.636Z,19.18
2023-04-27T17:23:11.634Z,19.15
2023-04-27T17:24:11.654Z,19.09
2023-04-27T17:25:14.607Z,19.08
2023-04-27T17:26:11.634Z,19.07
2023-04-27T17:27:11.642Z,18.99
2023-04-27T17:28:11.645Z,18.90
2023-04-27T17:29:11.651Z,18.88
2023-04-27T17:30:11.573Z,18.84
2023-04-27T17:31:11.569Z,18.80
2023-04-27T17:32:11.565Z,18.78
2023-04-27T17:33:11.520Z,18.77
2023-04-27T17:34:11.524Z,18.75
2023-04-27T17:35:11.534Z,18.71
2023-04-27T17:36:11.513Z,18.66
2023-04-27T17:37:11.504Z,18.60
2023-04-27T17:38:11.480Z,18.53
2023-04-27T17:39:11.646Z,18.47
2023-04-27T17:40:14.465Z,18.41
2023-04-27T17:41:11.483Z,18.35
2023-04-27T17:42:11.479Z,18.25
2023-04-27T17:43:11.424Z,18.19
2023-04-27T17:45:11.448Z,18.04
2023-04-27T17:46:11.474Z,17.90
2023-04-27T17:47:11.395Z,17.76
2023-04-27T17:48:11.447Z,17.63
2023-04-27T17:50:11.426Z,17.20
2023-04-27T17:51:11.367Z,17.05
2023-04-27T17:52:11.339Z,16.93
2023-04-27T17:53:11.353Z,16.81
2023-04-27T17:55:14.417Z,16.61
2023-04-27T17:56:11.295Z,16.53
2023-04-27T17:57:11.282Z,16.39
2023-04-27T17:58:11.296Z,16.28
2023-04-27T17:59:11.302Z,16.16
2023-04-27T18:00:11.430Z,16.05
2023-04-27T18:01:11.348Z,15.98
2023-04-27T18:02:11.319Z,15.86
2023-04-27T18:04:11.351Z,15.75
2023-04-27T18:05:11.228Z,15.72
2023-04-27T18:06:11.263Z,15.68
2023-04-27T18:07:11.217Z,15.64
2023-04-27T18:08:11.178Z,15.61
2023-04-27T18:10:14.157Z,15.44
2023-04-27T18:11:11.168Z,15.36
2023-04-27T18:12:11.371Z,15.22
2023-04-27T18:14:11.126Z,15.03
2023-04-27T18:15:11.128Z,14.97
2023-04-27T18:16:11.174Z,14.92
2023-04-27T18:17:11.130Z,14.91
2023-04-27T18:18:11.161Z,14.88
2023-04-27T18:20:11.108Z,14.78
2023-04-27T18:21:11.026Z,14.77
2023-04-27T18:22:11.039Z,14.73
2023-04-27T18:23:11.008Z,14.69
2023-04-27T18:24:11.010Z,14.66
2023-04-27T18:25:14.017Z,14.55
2023-04-27T18:26:11.645Z,14.47
2023-04-27T18:28:11.001Z,14.40
2023-04-27T18:30:10.953Z,14.41
2023-04-27T18:31:11.099Z,14.37
2023-04-27T18:33:10.918Z,14.32
2023-04-27T18:34:10.921Z,14.28
2023-04-27T18:35:10.908Z,14.26
2023-04-27T18:37:10.852Z,14.20
2023-04-27T18:38:10.888Z,14.14
2023-04-27T18:39:10.881Z,14.11
2023-04-27T18:40:13.848Z,14.08
2023-04-27T18:41:10.856Z,14.04
2023-04-27T18:42:10.844Z,13.97
2023-04-27T18:43:10.818Z,13.90
2023-04-27T18:44:10.874Z,13.86
2023-04-27T18:45:10.796Z,13.85
2023-04-27T18:46:10.853Z,13.83
2023-04-27T18:47:11.032Z,13.81
2023-04-27T18:48:10.867Z,13.79
2023-04-27T18:49:10.761Z,13.74
2023-04-27T18:50:10.725Z,13.74
2023-04-27T18:51:10.705Z,13.71
2023-04-27T18:52:10.691Z,13.70
2023-04-27T18:53:10.689Z,13.68
2023-04-27T18:55:13.692Z,13.68
2023-04-27T18:56:10.686Z,13.68
2023-04-27T18:58:10.681Z,13.67
2023-04-27T18:59:10.720Z,13.70
2023-04-27T19:00:10.610Z,13.70
2023-04-27T19:01:11.498Z,13.70
2023-04-27T19:02:10.612Z,13.71
2023-04-27T19:03:10.739Z,13.71
2023-04-27T19:04:10.892Z,13.68
2023-04-27T19:05:13.507Z,13.63
2023-04-27T19:06:10.597Z,13.59
2023-04-27T19:07:10.612Z,13.56
2023-04-27T19:08:10.613Z,13.57
2023-04-27T19:09:10.783Z,13.56
2023-04-27T19:10:13.595Z,13.56
2023-04-27T19:11:10.576Z,13.52
2023-04-27T19:12:10.688Z,13.50
2023-04-27T19:13:10.522Z,13.49
2023-04-27T19:14:10.548Z,13.47
2023-04-27T19:15:10.504Z,13.44
2023-04-27T19:16:10.563Z,13.42
2023-04-27T19:17:10.524Z,13.44
2023-04-27T19:18:11.665Z,13.46
2023-04-27T19:19:10.453Z,13.46
2023-04-27T19:20:10.610Z,13.49
2023-04-27T19:21:10.479Z,13.52
2023-04-27T19:22:10.440Z,13.56
2023-04-27T19:23:10.469Z,13.59
2023-04-27T19:24:10.425Z,13.57
2023-04-27T19:25:13.458Z,13.62
2023-04-27T19:26:13.628Z,13.63
2023-04-27T19:27:10.405Z,13.63
2023-04-27T19:28:10.432Z,13.63
2023-04-27T19:29:10.385Z,13.63
2023-04-27T19:30:10.383Z,13.60
2023-04-27T19:31:10.531Z,13.62
2023-04-27T19:32:10.320Z,13.57
2023-04-27T19:33:10.340Z,13.53
2023-04-27T19:34:10.300Z,13.52
2023-04-27T19:35:11.568Z,13.47
2023-04-27T19:36:10.314Z,13.47
2023-04-27T19:37:10.301Z,13.46
2023-04-27T19:38:10.276Z,13.44
2023-04-27T19:39:10.259Z,13.42
2023-04-27T19:40:13.237Z,13.39
2023-04-27T19:41:10.231Z,13.38
2023-04-27T19:42:10.242Z,13.33
2023-04-27T19:43:10.229Z,13.27
2023-04-27T19:44:10.255Z,13.23
2023-04-27T19:45:10.343Z,13.20
2023-04-27T19:46:10.251Z,13.18
2023-04-27T19:47:10.192Z,13.16
2023-04-27T19:48:10.185Z,13.13
2023-04-27T19:49:10.177Z,13.16
2023-04-27T19:50:10.132Z,13.18
2023-04-27T19:51:10.123Z,13.18
2023-04-27T19:52:10.114Z,13.19
2023-04-27T19:53:10.136Z,13.19
2023-04-27T19:54:10.092Z,13.20
2023-04-27T19:55:13.125Z,13.19
2023-04-27T19:56:10.069Z,13.15
2023-04-27T19:58:10.048Z,13.09
2023-04-27T19:59:10.040Z,13.03
2023-04-27T20:00:10.044Z,12.98
2023-04-27T20:01:12.312Z,13.00
2023-04-27T20:02:10.135Z,12.95
2023-04-27T20:03:10.180Z,12.97
2023-04-27T20:04:10.165Z,12.94
2023-04-27T20:05:10.336Z,12.95
2023-04-27T20:06:10.093Z,12.91
2023-04-27T20:07:10.950Z,12.93
2023-04-27T20:08:09.946Z,12.91
2023-04-27T20:09:09.948Z,12.90
2023-04-27T20:10:12.926Z,12.90
2023-04-27T20:11:09.948Z,12.90
2023-04-27T20:12:23.697Z,12.90
2023-04-27T20:13:10.931Z,12.86
2023-04-27T20:14:09.878Z,12.83
2023-04-27T20:15:09.883Z,12.82
2023-04-27T20:16:09.929Z,12.82
2023-04-27T20:17:09.871Z,12.80
2023-04-27T20:19:09.827Z,12.80
2023-04-27T20:20:09.833Z,12.80
2023-04-27T20:21:09.826Z,12.78
2023-04-27T20:22:09.795Z,12.76
2023-04-27T20:23:10.910Z,12.75
2023-04-27T20:24:09.824Z,12.73
2023-04-27T20:25:12.767Z,12.68
2023-04-27T20:26:09.747Z,12.64
2023-04-27T20:27:09.750Z,12.60
2023-04-27T20:28:09.727Z,12.57
2023-04-27T20:29:09.806Z,12.53
2023-04-27T20:30:09.766Z,12.47
2023-04-27T20:31:09.740Z,12.47
2023-04-27T20:32:09.759Z,12.40
2023-04-27T20:34:09.904Z,12.32
2023-04-27T20:35:09.689Z,12.29
2023-04-27T20:36:17.443Z,12.27
2023-04-27T20:37:09.712Z,12.27
2023-04-27T20:38:09.632Z,12.28
2023-04-27T20:39:09.629Z,12.25
2023-04-27T20:40:14.269Z,12.25
2023-04-27T20:41:09.621Z,12.24
2023-04-27T20:42:09.652Z,12.24
2023-04-27T20:43:09.588Z,12.24
2023-04-27T20:44:09.599Z,12.24
2023-04-27T20:45:09.541Z,12.24
2023-04-27T20:46:09.581Z,12.21
2023-04-27T20:47:09.565Z,12.20
2023-04-27T20:48:09.596Z,12.20
2023-04-27T20:49:09.511Z,12.18
2023-04-27T20:50:09.490Z,12.17
2023-04-27T20:51:09.512Z,12.13
2023-04-27T20:52:09.497Z,12.10
2023-04-27T20:53:09.462Z,12.06
2023-04-27T20:54:09.484Z,12.02
2023-04-27T20:55:12.431Z,11.97
2023-04-27T20:56:09.432Z,11.91
2023-04-27T20:57:09.415Z,11.88
2023-04-27T20:58:09.487Z,11.84
2023-04-27T20:59:09.445Z,11.83
2023-04-27T21:00:09.443Z,11.78
2023-04-27T21:01:09.479Z,11.75
2023-04-27T21:02:09.364Z,11.73
2023-04-27T21:03:09.422Z,11.72
2023-04-27T21:05:09.350Z,11.69
2023-04-27T21:06:09.370Z,11.70
2023-04-27T21:07:09.303Z,11.70
2023-04-27T21:08:09.324Z,11.70
2023-04-27T21:09:09.318Z,11.70
2023-04-27T21:10:12.316Z,11.70
2023-04-27T21:11:09.277Z,11.69
2023-04-27T21:12:09.342Z,11.69
2023-04-27T21:13:09.301Z,11.69
2023-04-27T21:14:09.327Z,11.68
2023-04-27T21:15:09.243Z,11.68
2023-04-27T21:16:09.220Z,11.68
2023-04-27T21:17:09.434Z,11.66
2023-04-27T21:18:16.017Z,11.65
2023-04-27T21:19:10.237Z,11.63
2023-04-27T21:20:09.198Z,11.62
2023-04-27T21:21:09.181Z,11.57
2023-04-27T21:22:09.175Z,11.55
2023-04-27T21:23:09.178Z,11.51
2023-04-27T21:24:09.158Z,11.48
2023-04-27T21:25:12.140Z,11.47
2023-04-27T21:26:09.134Z,11.45
2023-04-27T21:27:09.083Z,11.44
2023-04-27T21:28:09.109Z,11.41
2023-04-27T21:29:09.053Z,11.35
2023-04-27T21:30:09.076Z,11.35
2023-04-27T21:31:09.122Z,11.33
2023-04-27T21:32:09.044Z,11.32
2023-04-27T21:33:09.150Z,11.32
2023-04-27T21:35:09.012Z,11.29
2023-04-27T21:36:08.993Z,11.26
2023-04-27T21:37:08.999Z,11.27
2023-04-27T21:38:09.044Z,11.27
2023-04-27T21:39:09.003Z,11.27
2023-04-27T21:40:11.958Z,11.25
2023-04-27T21:41:09.068Z,11.25
2023-04-27T21:42:08.933Z,11.23
2023-04-27T21:43:08.922Z,11.22
2023-04-27T21:44:08.926Z,11.19
2023-04-27T21:45:08.897Z,11.19
2023-04-27T21:46:08.933Z,11.19
2023-04-27T21:47:08.916Z,11.22
2023-04-27T21:48:08.964Z,11.19
2023-04-27T21:49:08.859Z,11.14
2023-04-27T21:50:08.843Z,11.12
2023-04-27T21:51:08.868Z,11.10
2023-04-27T21:52:08.973Z,11.05
2023-04-27T21:53:08.840Z,11.02
2023-04-27T21:54:08.942Z,11.04
2023-04-27T21:55:11.810Z,11.05
2023-04-27T21:56:08.835Z,11.07
2023-04-27T21:57:08.770Z,11.07
2023-04-27T21:58:08.814Z,11.08
2023-04-27T21:59:08.753Z,11.11
2023-04-27T22:00:08.772Z,11.12
2023-04-27T22:01:08.768Z,11.14
2023-04-27T22:02:08.853Z,11.15
2023-04-27T22:03:08.947Z,11.18
2023-04-27T22:04:08.880Z,11.18
2023-04-27T22:05:08.725Z,11.19
2023-04-27T22:06:08.673Z,11.18
2023-04-27T22:07:08.673Z,11.22
2023-04-27T22:08:08.716Z,11.23
2023-04-27T22:09:08.706Z,11.25
2023-04-27T22:10:11.668Z,11.23
2023-04-27T22:11:08.663Z,11.26
2023-04-27T22:12:08.645Z,11.27
2023-04-27T22:13:18.687Z,11.29
2023-04-27T22:14:08.596Z,11.26
2023-04-27T22:15:08.593Z,11.27
2023-04-27T22:16:08.624Z,11.25
2023-04-27T22:17:08.592Z,11.27
2023-04-27T22:18:08.664Z,11.27
2023-04-27T22:19:08.545Z,11.22
2023-04-27T22:20:08.535Z,11.18
2023-04-27T22:21:08.557Z,11.17
2023-04-27T22:22:08.538Z,11.14
2023-04-27T22:23:08.514Z,11.12
2023-04-27T22:24:08.487Z,11.11
2023-04-27T22:25:11.505Z,11.10
2023-04-27T22:26:09.095Z,11.10
2023-04-27T22:27:08.469Z,11.08
2023-04-27T22:29:08.506Z,11.05
2023-04-27T22:30:08.444Z,11.05
2023-04-27T22:31:08.477Z,11.04
2023-04-27T22:32:08.469Z,11.02
2023-04-27T22:33:08.540Z,11.00
2023-04-27T22:34:08.414Z,11.00
2023-04-27T22:35:13.053Z,11.02
2023-04-27T22:36:09.386Z,11.00
2023-04-27T22:37:08.390Z,11.00
2023-04-27T22:38:08.344Z,11.00
2023-04-27T22:39:08.357Z,11.02
2023-04-27T22:40:11.377Z,11.02
2023-04-27T22:41:08.333Z,11.02
2023-04-27T22:42:08.324Z,11.02
2023-04-27T22:43:08.284Z,11.04
2023-04-27T22:44:08.286Z,11.02
2023-04-27T22:45:08.310Z,11.02
2023-04-27T22:46:08.294Z,11.04
2023-04-27T22:47:08.454Z,11.04
2023-04-27T22:48:08.351Z,11.05
2023-04-27T22:49:08.233Z,11.02
2023-04-27T22:50:08.219Z,11.02
2023-04-27T22:51:08.212Z,11.02
2023-04-27T22:52:08.234Z,11.02
2023-04-27T22:53:08.227Z,11.04
2023-04-27T22:54:08.194Z,11.02
2023-04-27T22:55:11.254Z,11.00
2023-04-27T22:56:08.180Z,10.99
2023-04-27T22:57:08.254Z,10.94
2023-04-27T22:58:08.163Z,10.92
2023-04-27T22:59:08.169Z,10.90
2023-04-27T23:00:08.153Z,10.90
2023-04-27T23:01:08.116Z,10.89
2023-04-27T23:02:08.113Z,10.90
2023-04-27T23:03:08.263Z,10.93
2023-04-27T23:04:08.353Z,10.92
2023-04-27T23:05:08.082Z,10.93
2023-04-27T23:06:08.094Z,10.93
2023-04-27T23:07:08.041Z,10.93
2023-04-27T23:08:08.144Z,10.92
2023-04-27T23:09:08.217Z,10.93
2023-04-27T23:10:11.044Z,10.96
2023-04-27T23:11:08.041Z,10.94
2023-04-27T23:12:08.032Z,10.93
2023-04-27T23:13:08.001Z,10.89
2023-04-27T23:14:08.001Z,10.86
2023-04-27T23:15:08.025Z,10.82
2023-04-27T23:16:08.002Z,10.81
2023-04-27T23:17:07.967Z,10.76
2023-04-27T23:18:07.993Z,10.74
2023-04-27T23:19:07.933Z,10.75
2023-04-27T23:20:11.148Z,10.71
2023-04-27T23:21:08.900Z,10.69
2023-04-27T23:22:07.919Z,10.68
2023-04-27T23:23:07.930Z,10.68
2023-04-27T23:24:07.889Z,10.67
2023-04-27T23:25:10.905Z,10.67
2023-04-27T23:26:07.873Z,10.67
2023-04-27T23:27:07.831Z,10.64
2023-04-27T23:28:07.826Z,10.63
2023-04-27T23:29:07.818Z,10.64
2023-04-27T23:30:07.892Z,10.63
2023-04-27T23:31:07.877Z,10.61
2023-04-27T23:32:07.787Z,10.64
2023-04-27T23:33:07.773Z,10.61
2023-04-27T23:34:07.764Z,10.59
2023-04-27T23:35:07.766Z,10.57
2023-04-27T23:36:07.768Z,10.57
2023-04-27T23:37:07.757Z,10.54
2023-04-27T23:38:07.738Z,10.49
2023-04-27T23:39:07.700Z,10.44
2023-04-27T23:40:10.692Z,10.46
2023-04-27T23:41:07.696Z,10.42
2023-04-27T23:42:07.724Z,10.42
2023-04-27T23:43:07.678Z,10.42
2023-04-27T23:44:07.658Z,10.44
2023-04-27T23:45:07.663Z,10.46
2023-04-27T23:46:07.678Z,10.46
2023-04-27T23:47:07.688Z,10.48
2023-04-27T23:48:07.717Z,10.44
2023-04-27T23:49:07.622Z,10.48
2023-04-27T23:50:07.625Z,10.46
2023-04-27T23:51:07.591Z,10.49
2023-04-27T23:52:07.598Z,10.49
2023-04-27T23:53:07.581Z,10.51
2023-04-27T23:54:07.542Z,10.51
2023-04-27T23:55:10.566Z,10.51
2023-04-27T23:56:07.535Z,10.53
2023-04-27T23:57:07.526Z,10.51
2023-04-27T23:58:07.538Z,10.49
2023-04-27T23:59:07.514Z,10.49
